Ponca City, Oklahoma
Current Conditions -  °F | °C
As of 12:53 PM on Thursday 23 Oct 2014 (Local Time) from KPNC Reporting Station
Clear Clear  
Wind Chill: 71°   Ceiling: Unl
Heat Index: 71°   Visibility: 10mi
Dew Point: 58°   Wind: 7mph
Humidity: 63%   Direction: NA
Pressure: 30.11"   Gusts: NA
Location:  36.7°N, 97.08°W
Report Text: KPNC 231753Z AUTO VRB06KT 10SM CLR 22/14 A3011 RMK AO2 SLP187 T02170144 10217 20167 58004
Loading
Personal Weather Stations






























Interactive Weather Map
Tropical Storm Tracking
New forecast layout! Learn more

10-Day Weather Forecast

Advertisements
Track Severe Weather on mobile